sensor_id;sensor_type;location;lat;lon;timestamp;pressure;altitude;pressure_sealevel;temperature;humidity
46111;BME280;31849;55.992;37.252;2024-03-23T00:56:51;98045.97;;;2.43;62.83
46111;BME280;31849;55.992;37.252;2024-03-23T01:01:54;98037.44;;;2.47;62.63
46111;BME280;31849;55.992;37.252;2024-03-23T01:06:57;98038.31;;;2.49;62.39
46111;BME280;31849;55.992;37.252;2024-03-23T01:12:01;98021.22;;;2.50;64.30
46111;BME280;31849;55.992;37.252;2024-03-23T01:17:04;98020.31;;;2.44;64.41
46111;BME280;31849;55.992;37.252;2024-03-23T01:22:07;98014.41;;;2.58;63.54
46111;BME280;31849;55.992;37.252;2024-03-23T01:27:12;97995.56;;;2.48;64.45
46111;BME280;31849;55.992;37.252;2024-03-23T01:32:15;97993.78;;;2.36;65.50
46111;BME280;31849;55.992;37.252;2024-03-23T01:37:18;97981.84;;;2.47;65.10
46111;BME280;31849;55.992;37.252;2024-03-23T01:42:22;97970.75;;;2.50;65.17
46111;BME280;31849;55.992;37.252;2024-03-23T01:47:24;97963.91;;;2.52;64.93
46111;BME280;31849;55.992;37.252;2024-03-23T01:52:27;97953.63;;;2.47;65.54
46111;BME280;31849;55.992;37.252;2024-03-23T01:57:32;97939.06;;;2.42;66.15
46111;BME280;31849;55.992;37.252;2024-03-23T02:02:34;97928.84;;;2.45;66.00
46111;BME280;31849;55.992;37.252;2024-03-23T02:07:37;97920.38;;;2.61;65.57
46111;BME280;31849;55.992;37.252;2024-03-23T02:12:41;97916.03;;;2.50;65.96
46111;BME280;31849;55.992;37.252;2024-03-23T02:17:44;97916.88;;;2.47;66.29
46111;BME280;31849;55.992;37.252;2024-03-23T02:22:51;97900.53;;;2.33;67.86
46111;BME280;31849;55.992;37.252;2024-03-23T02:27:54;97900.50;;;2.26;68.25
46111;BME280;31849;55.992;37.252;2024-03-23T02:32:56;97875.78;;;2.36;67.04
46111;BME280;31849;55.992;37.252;2024-03-23T02:38:00;97867.19;;;2.31;67.95
46111;BME280;31849;55.992;37.252;2024-03-23T02:43:03;97868.09;;;2.38;68.10
46111;BME280;31849;55.992;37.252;2024-03-23T02:48:06;97858.66;;;2.34;68.99
46111;BME280;31849;55.992;37.252;2024-03-23T02:53:11;97838.91;;;2.16;70.59
46111;BME280;31849;55.992;37.252;2024-03-23T02:58:13;97832.06;;;2.11;70.51
46111;BME280;31849;55.992;37.252;2024-03-23T03:03:16;97832.97;;;2.23;70.39
46111;BME280;31849;55.992;37.252;2024-03-23T03:08:20;97814.97;;;2.18;70.86
46111;BME280;31849;55.992;37.252;2024-03-23T03:13:22;97819.31;;;2.30;70.55
46111;BME280;31849;55.992;37.252;2024-03-23T03:18:25;97814.16;;;2.24;71.78
46111;BME280;31849;55.992;37.252;2024-03-23T03:23:29;97811.59;;;2.27;71.73
46111;BME280;31849;55.992;37.252;2024-03-23T03:28:31;97796.22;;;2.30;71.70
46111;BME280;31849;55.992;37.252;2024-03-23T03:33:34;97780.91;;;2.45;71.37
46111;BME280;31849;55.992;37.252;2024-03-23T03:38:38;97768.94;;;2.49;70.70
46111;BME280;31849;55.992;37.252;2024-03-23T03:43:41;97762.97;;;2.61;71.26
46111;BME280;31849;55.992;37.252;2024-03-23T03:48:44;97760.44;;;2.76;70.86
46111;BME280;31849;55.992;37.252;2024-03-23T03:53:50;97749.31;;;2.80;70.47
46111;BME280;31849;55.992;37.252;2024-03-23T03:58:53;97748.47;;;2.86;70.49
46111;BME280;31849;55.992;37.252;2024-03-23T04:03:55;97745.03;;;2.92;70.37
46111;BME280;31849;55.992;37.252;2024-03-23T04:08:59;97741.63;;;2.84;70.71
46111;BME280;31849;55.992;37.252;2024-03-23T04:14:02;97733.91;;;2.77;71.18
46111;BME280;31849;55.992;37.252;2024-03-23T04:19:05;97719.38;;;2.87;70.78
46111;BME280;31849;55.992;37.252;2024-03-23T04:24:09;97714.25;;;2.84;71.71
46111;BME280;31849;55.992;37.252;2024-03-23T04:29:12;97702.25;;;2.86;71.73
46111;BME280;31849;55.992;37.252;2024-03-23T04:34:15;97698.00;;;2.90;70.86
46111;BME280;31849;55.992;37.252;2024-03-23T04:39:19;97691.16;;;2.78;72.08
46111;BME280;31849;55.992;37.252;2024-03-23T04:44:21;97686.84;;;2.95;71.22
46111;BME280;31849;55.992;37.252;2024-03-23T04:49:24;97687.69;;;2.82;72.86
46111;BME280;31849;55.992;37.252;2024-03-23T04:54:28;97674.91;;;2.85;72.62
46111;BME280;31849;55.992;37.252;2024-03-23T04:59:31;97684.31;;;2.97;73.36
46111;BME280;31849;55.992;37.252;2024-03-23T05:04:33;97674.00;;;2.92;72.70
46111;BME280;31849;55.992;37.252;2024-03-23T05:09:37;97667.19;;;2.94;73.52
46111;BME280;31849;55.992;37.252;2024-03-23T05:14:40;97659.47;;;2.96;73.25
46111;BME280;31849;55.992;37.252;2024-03-23T05:19:42;97648.34;;;2.92;73.76
46111;BME280;31849;55.992;37.252;2024-03-23T05:24:46;97632.97;;;2.98;73.75
46111;BME280;31849;55.992;37.252;2024-03-23T05:29:49;97643.19;;;3.17;72.35
46111;BME280;31849;55.992;37.252;2024-03-23T05:34:51;97622.63;;;3.15;73.48
46111;BME280;31849;55.992;37.252;2024-03-23T05:39:58;97624.38;;;3.12;74.48
46111;BME280;31849;55.992;37.252;2024-03-23T05:45:00;97623.50;;;3.13;73.17
46111;BME280;31849;55.992;37.252;2024-03-23T05:50:05;97628.59;;;3.19;73.35
46111;BME280;31849;55.992;37.252;2024-03-23T05:55:09;97619.19;;;3.26;73.61
46111;BME280;31849;55.992;37.252;2024-03-23T06:00:12;97612.25;;;3.49;72.39
46111;BME280;31849;55.992;37.252;2024-03-23T06:05:18;97601.13;;;3.52;72.15
46111;BME280;31849;55.992;37.252;2024-03-23T06:10:22;97601.09;;;3.55;72.45
46111;BME280;31849;55.992;37.252;2024-03-23T06:15:25;97604.63;;;3.36;73.05
46111;BME280;31849;55.992;37.252;2024-03-23T06:20:28;97590.00;;;3.44;73.00
46111;BME280;31849;55.992;37.252;2024-03-23T06:25:32;97578.03;;;3.40;73.03
46111;BME280;31849;55.992;37.252;2024-03-23T06:30:35;97583.13;;;3.50;72.94
46111;BME280;31849;55.992;37.252;2024-03-23T06:35:37;97577.06;;;3.65;72.88
46111;BME280;31849;55.992;37.252;2024-03-23T06:40:41;97565.16;;;3.50;73.36
46111;BME280;31849;55.992;37.252;2024-03-23T06:45:52;97566.84;;;3.50;72.73
46111;BME280;31849;55.992;37.252;2024-03-23T06:50:56;97554.13;;;3.27;74.38
46111;BME280;31849;55.992;37.252;2024-03-23T06:56:00;97557.44;;;3.52;73.90
46111;BME280;31849;55.992;37.252;2024-03-23T07:01:03;97552.13;;;3.80;72.12
46111;BME280;31849;55.992;37.252;2024-03-23T07:06:06;97549.53;;;3.81;73.14
46111;BME280;31849;55.992;37.252;2024-03-23T07:11:10;97552.13;;;3.81;72.70
46111;BME280;31849;55.992;37.252;2024-03-23T07:16:13;97538.44;;;3.76;72.41
46111;BME280;31849;55.992;37.252;2024-03-23T07:21:15;97536.66;;;3.84;73.00
46111;BME280;31849;55.992;37.252;2024-03-23T07:26:19;97545.16;;;3.99;72.66
46111;BME280;31849;55.992;37.252;2024-03-23T07:31:22;97538.25;;;4.09;71.87
46111;BME280;31849;55.992;37.252;2024-03-23T07:36:26;97539.13;;;4.04;71.52
46111;BME280;31849;55.992;37.252;2024-03-23T07:41:30;97533.13;;;4.04;71.61
46111;BME280;31849;55.992;37.252;2024-03-23T07:46:32;97528.78;;;4.11;72.02
46111;BME280;31849;55.992;37.252;2024-03-23T07:51:35;97507.38;;;4.09;71.48
46111;BME280;31849;55.992;37.252;2024-03-23T07:56:41;97521.13;;;4.03;72.78
46111;BME280;31849;55.992;37.252;2024-03-23T08:01:44;97509.16;;;3.97;72.48
46111;BME280;31849;55.992;37.252;2024-03-23T08:06:46;97500.56;;;4.03;72.40
46111;BME280;31849;55.992;37.252;2024-03-23T08:11:50;97499.69;;;4.05;73.55
46111;BME280;31849;55.992;37.252;2024-03-23T08:16:54;97491.06;;;4.13;72.35
46111;BME280;31849;55.992;37.252;2024-03-23T08:21:57;97491.06;;;4.13;72.24
46111;BME280;31849;55.992;37.252;2024-03-23T08:27:01;97509.84;;;4.21;72.39
46111;BME280;31849;55.992;37.252;2024-03-23T08:32:06;97501.16;;;4.33;72.31
46111;BME280;31849;55.992;37.252;2024-03-23T08:37:08;97501.00;;;4.51;71.90
46111;BME280;31849;55.992;37.252;2024-03-23T08:42:12;97492.56;;;4.37;72.28
46111;BME280;31849;55.992;37.252;2024-03-23T08:47:15;97483.91;;;4.44;72.58
46111;BME280;31849;55.992;37.252;2024-03-23T08:52:17;97472.44;;;4.73;71.57
46111;BME280;31849;55.992;37.252;2024-03-23T09:02:42;97478.50;;;4.67;72.21
46111;BME280;31849;55.992;37.252;2024-03-23T09:07:49;97476.72;;;4.75;71.93
46111;BME280;31849;55.992;37.252;2024-03-23T09:12:53;97469.03;;;4.72;72.07
46111;BME280;31849;55.992;37.252;2024-03-23T09:17:56;97453.56;;;4.74;72.31
46111;BME280;31849;55.992;37.252;2024-03-23T09:22:58;97446.69;;;4.73;72.58
46111;BME280;31849;55.992;37.252;2024-03-23T09:28:03;97451.69;;;4.87;72.47
46111;BME280;31849;55.992;37.252;2024-03-23T09:33:05;97455.22;;;4.81;72.88
46111;BME280;31849;55.992;37.252;2024-03-23T09:38:08;97453.41;;;4.88;72.41
46111;BME280;31849;55.992;37.252;2024-03-23T09:43:13;97429.28;;;4.93;71.53
46111;BME280;31849;55.992;37.252;2024-03-23T09:48:16;97423.44;;;4.81;72.67
46111;BME280;31849;55.992;37.252;2024-03-23T09:53:18;97432.78;;;4.89;72.25
46111;BME280;31849;55.992;37.252;2024-03-23T09:58:25;97436.22;;;4.87;72.02
46111;BME280;31849;55.992;37.252;2024-03-23T10:03:28;97428.31;;;5.04;72.63
46111;BME280;31849;55.992;37.252;2024-03-23T10:08:30;97438.53;;;5.10;72.12
46111;BME280;31849;55.992;37.252;2024-03-23T10:13:35;97422.09;;;5.19;72.10
46111;BME280;31849;55.992;37.252;2024-03-23T10:18:38;97433.06;;;5.33;71.85
46111;BME280;31849;55.992;37.252;2024-03-23T10:23:43;97424.53;;;5.28;71.40
46111;BME280;31849;55.992;37.252;2024-03-23T10:28:55;97419.09;;;5.50;71.31
46111;BME280;31849;55.992;37.252;2024-03-23T10:34:00;97415.72;;;5.44;70.59
46111;BME280;31849;55.992;37.252;2024-03-23T10:39:05;97418.63;;;5.23;72.00
46111;BME280;31849;55.992;37.252;2024-03-23T10:44:11;97420.28;;;5.27;72.47
46111;BME280;31849;55.992;37.252;2024-03-23T10:49:14;97432.06;;;5.45;70.99
46111;BME280;31849;55.992;37.252;2024-03-23T10:54:17;97423.19;;;5.63;70.81
46111;BME280;31849;55.992;37.252;2024-03-23T10:59:22;97421.66;;;5.51;71.29
46111;BME280;31849;55.992;37.252;2024-03-23T11:04:31;97426.13;;;5.38;71.94
46111;BME280;31849;55.992;37.252;2024-03-23T11:09:41;97407.78;;;5.58;71.20
46111;BME280;31849;55.992;37.252;2024-03-23T11:14:47;97416.50;;;5.50;71.62
46111;BME280;31849;55.992;37.252;2024-03-23T11:19:54;97413.81;;;5.57;71.50
46111;BME280;31849;55.992;37.252;2024-03-23T11:24:58;97405.38;;;5.46;71.99
46111;BME280;31849;55.992;37.252;2024-03-23T11:30:14;97403.19;;;5.20;73.12
46111;BME280;31849;55.992;37.252;2024-03-23T11:35:30;97389.19;;;5.38;72.75
46111;BME280;31849;55.992;37.252;2024-03-23T11:40:35;97412.06;;;5.58;71.96
46111;BME280;31849;55.992;37.252;2024-03-23T11:45:41;97399.31;;;5.50;73.04
46111;BME280;31849;55.992;37.252;2024-03-23T11:50:46;97389.44;;;5.77;71.08
46111;BME280;31849;55.992;37.252;2024-03-23T11:55:50;97393.66;;;5.81;71.38
46111;BME280;31849;55.992;37.252;2024-03-23T12:00:56;97381.53;;;5.86;72.05
46111;BME280;31849;55.992;37.252;2024-03-23T12:06:00;97371.31;;;5.81;71.47
46111;BME280;31849;55.992;37.252;2024-03-23T12:11:08;97383.34;;;5.81;71.11
46111;BME280;31849;55.992;37.252;2024-03-23T12:16:15;97377.59;;;5.65;72.74
46111;BME280;31849;55.992;37.252;2024-03-23T12:21:18;97378.84;;;5.41;73.29
46111;BME280;31849;55.992;37.252;2024-03-23T12:26:23;97381.38;;;5.44;72.92
46111;BME280;31849;55.992;37.252;2024-03-23T12:31:28;97382.38;;;5.34;73.42
46111;BME280;31849;55.992;37.252;2024-03-23T12:36:30;97376.97;;;5.49;73.37
46111;BME280;31849;55.992;37.252;2024-03-23T12:41:33;97381.28;;;5.49;73.26
46111;BME280;31849;55.992;37.252;2024-03-23T12:46:37;97378.94;;;5.35;74.24
46111;BME280;31849;55.992;37.252;2024-03-23T12:51:48;97376.53;;;5.22;73.95
46111;BME280;31849;55.992;37.252;2024-03-23T12:56:54;97369.72;;;5.20;75.46
46111;BME280;31849;55.992;37.252;2024-03-23T13:01:58;97373.84;;;5.32;74.55
46111;BME280;31849;55.992;37.252;2024-03-23T13:07:01;97363.41;;;5.39;73.24
46111;BME280;31849;55.992;37.252;2024-03-23T13:12:04;97341.22;;;5.29;73.59
46111;BME280;31849;55.992;37.252;2024-03-23T13:17:08;97362.59;;;5.34;74.34
46111;BME280;31849;55.992;37.252;2024-03-23T13:22:11;97366.13;;;5.30;74.06
46111;BME280;31849;55.992;37.252;2024-03-23T13:27:13;97344.97;;;5.08;75.14
46111;BME280;31849;55.992;37.252;2024-03-23T13:32:17;97354.31;;;5.15;74.68
46111;BME280;31849;55.992;37.252;2024-03-23T13:42:41;97350.09;;;5.09;74.87
46111;BME280;31849;55.992;37.252;2024-03-23T13:47:45;97356.31;;;4.96;75.82
46111;BME280;31849;55.992;37.252;2024-03-23T13:52:48;97356.38;;;4.90;75.61
46111;BME280;31849;55.992;37.252;2024-03-23T13:57:52;97363.19;;;4.92;75.48
46111;BME280;31849;55.992;37.252;2024-03-23T14:02:56;97364.00;;;4.98;75.83
46111;BME280;31849;55.992;37.252;2024-03-23T14:07:58;97362.16;;;5.06;75.42
46111;BME280;31849;55.992;37.252;2024-03-23T14:13:01;97357.03;;;5.04;75.29
46111;BME280;31849;55.992;37.252;2024-03-23T14:18:06;97359.75;;;4.93;76.08
46111;BME280;31849;55.992;37.252;2024-03-23T14:23:08;97351.84;;;5.06;75.17
46111;BME280;31849;55.992;37.252;2024-03-23T14:28:11;97358.75;;;5.04;76.45
46111;BME280;31849;55.992;37.252;2024-03-23T14:33:17;97357.13;;;4.98;77.50
46111;BME280;31849;55.992;37.252;2024-03-23T14:38:20;97356.06;;;5.11;75.89
46111;BME280;31849;55.992;37.252;2024-03-23T14:43:22;97352.59;;;5.16;75.57
46111;BME280;31849;55.992;37.252;2024-03-23T14:48:26;97345.78;;;5.11;76.09
46111;BME280;31849;55.992;37.252;2024-03-23T14:53:29;97349.16;;;5.14;76.37
46111;BME280;31849;55.992;37.252;2024-03-23T14:58:32;97354.00;;;5.35;75.45
46111;BME280;31849;55.992;37.252;2024-03-23T15:03:37;97344.88;;;5.14;76.29
46111;BME280;31849;55.992;37.252;2024-03-23T15:08:41;97337.13;;;5.16;75.40
46111;BME280;31849;55.992;37.252;2024-03-23T15:13:44;97356.72;;;5.27;76.00
46111;BME280;31849;55.992;37.252;2024-03-23T15:18:49;97360.13;;;5.28;76.47
46111;BME280;31849;55.992;37.252;2024-03-23T15:23:52;97352.25;;;5.37;75.15
46111;BME280;31849;55.992;37.252;2024-03-23T15:28:54;97356.47;;;5.41;75.49
46111;BME280;31849;55.992;37.252;2024-03-23T15:34:13;97354.88;;;5.34;75.63
46111;BME280;31849;55.992;37.252;2024-03-23T15:39:16;97360.81;;;5.39;74.96
46111;BME280;31849;55.992;37.252;2024-03-23T15:44:19;97378.13;;;5.31;75.51
46111;BME280;31849;55.992;37.252;2024-03-23T15:49:23;97362.72;;;5.26;75.56
46111;BME280;31849;55.992;37.252;2024-03-23T15:54:26;97380.69;;;5.31;75.01
46111;BME280;31849;55.992;37.252;2024-03-23T15:59:28;97389.22;;;5.36;75.52
46111;BME280;31849;55.992;37.252;2024-03-23T16:04:32;97395.44;;;5.23;76.23
46111;BME280;31849;55.992;37.252;2024-03-23T16:09:35;97401.44;;;5.22;76.00
46111;BME280;31849;55.992;37.252;2024-03-23T16:14:38;97404.00;;;5.23;75.79
46111;BME280;31849;55.992;37.252;2024-03-23T16:19:43;97412.56;;;5.24;76.09
46111;BME280;31849;55.992;37.252;2024-03-23T16:24:45;97416.75;;;5.33;75.92
46111;BME280;31849;55.992;37.252;2024-03-23T16:29:48;97427.22;;;5.20;76.54
46111;BME280;31849;55.992;37.252;2024-03-23T16:34:52;97420.38;;;5.19;76.61
46111;BME280;31849;55.992;37.252;2024-03-23T16:39:54;97433.19;;;5.24;76.38
46111;BME280;31849;55.992;37.252;2024-03-23T16:44:57;97434.72;;;5.37;75.85
46111;BME280;31849;55.992;37.252;2024-03-23T16:50:01;97437.28;;;5.37;75.48
46111;BME280;31849;55.992;37.252;2024-03-23T16:55:05;97450.13;;;5.42;75.16
46111;BME280;31849;55.992;37.252;2024-03-23T17:00:09;97454.41;;;5.41;75.53
46111;BME280;31849;55.992;37.252;2024-03-23T17:05:14;97452.59;;;5.50;75.48
46111;BME280;31849;55.992;37.252;2024-03-23T17:10:17;97458.75;;;5.39;75.59
46111;BME280;31849;55.992;37.252;2024-03-23T17:15:19;97470.78;;;5.37;76.18
46111;BME280;31849;55.992;37.252;2024-03-23T17:20:24;97468.31;;;5.31;75.90
46111;BME280;31849;55.992;37.252;2024-03-23T17:25:26;97476.88;;;5.35;75.33
46111;BME280;31849;55.992;37.252;2024-03-23T17:30:29;97477.75;;;5.32;76.13
46111;BME280;31849;55.992;37.252;2024-03-23T17:35:33;97490.81;;;5.20;76.05
46111;BME280;31849;55.992;37.252;2024-03-23T17:40:36;97493.63;;;4.98;76.25
46111;BME280;31849;55.992;37.252;2024-03-23T17:45:38;97492.97;;;4.79;76.74
46111;BME280;31849;55.992;37.252;2024-03-23T17:50:42;97495.78;;;4.59;76.54
46111;BME280;31849;55.992;37.252;2024-03-23T17:55:45;97504.53;;;4.41;77.22
46111;BME280;31849;55.992;37.252;2024-03-23T18:00:48;97513.25;;;4.20;77.43
46111;BME280;31849;55.992;37.252;2024-03-23T18:05:52;97513.41;;;4.03;77.94
46111;BME280;31849;55.992;37.252;2024-03-23T18:10:54;97524.69;;;3.85;78.10
46111;BME280;31849;55.992;37.252;2024-03-23T18:15:58;97512.75;;;3.73;77.89
46111;BME280;31849;55.992;37.252;2024-03-23T18:21:02;97527.38;;;3.63;78.63
46111;BME280;31849;55.992;37.252;2024-03-23T18:26:05;97518.03;;;3.48;79.21
46111;BME280;31849;55.992;37.252;2024-03-23T18:31:09;97530.09;;;3.39;78.91
46111;BME280;31849;55.992;37.252;2024-03-23T18:36:13;97532.69;;;3.28;78.63
46111;BME280;31849;55.992;37.252;2024-03-23T18:41:16;97539.59;;;3.21;79.26
46111;BME280;31849;55.992;37.252;2024-03-23T18:46:20;97537.03;;;3.18;79.10
46111;BME280;31849;55.992;37.252;2024-03-23T18:51:24;97549.03;;;3.11;79.96
46111;BME280;31849;55.992;37.252;2024-03-23T18:56:26;97549.03;;;3.07;79.25
46111;BME280;31849;55.992;37.252;2024-03-23T19:01:29;97556.75;;;3.07;79.17
46111;BME280;31849;55.992;37.252;2024-03-23T19:06:33;97547.34;;;3.03;79.25
46111;BME280;31849;55.992;37.252;2024-03-23T19:11:36;97558.50;;;2.97;79.92
46111;BME280;31849;55.992;37.252;2024-03-23T19:16:38;97569.63;;;2.97;79.57
46111;BME280;31849;55.992;37.252;2024-03-23T19:21:42;97567.94;;;2.89;79.24
46111;BME280;31849;55.992;37.252;2024-03-23T19:26:45;97579.94;;;2.84;79.93
46111;BME280;31849;55.992;37.252;2024-03-23T19:31:48;97576.50;;;2.80;80.38
46111;BME280;31849;55.992;37.252;2024-03-23T19:36:51;97576.50;;;2.75;80.44
46111;BME280;31849;55.992;37.252;2024-03-23T19:41:54;97582.50;;;2.73;80.00
46111;BME280;31849;55.992;37.252;2024-03-23T19:46:57;97591.03;;;2.81;79.60
46111;BME280;31849;55.992;37.252;2024-03-23T19:52:01;97591.91;;;2.72;79.61
46111;BME280;31849;55.992;37.252;2024-03-23T19:57:04;97593.63;;;2.70;79.41
46111;BME280;31849;55.992;37.252;2024-03-23T20:02:07;97597.06;;;2.68;79.89
46111;BME280;31849;55.992;37.252;2024-03-23T20:07:11;97597.06;;;2.58;79.73
46111;BME280;31849;55.992;37.252;2024-03-23T20:12:13;97597.03;;;2.57;80.01
46111;BME280;31849;55.992;37.252;2024-03-23T20:17:16;97595.34;;;2.53;79.61
46111;BME280;31849;55.992;37.252;2024-03-23T20:22:20;97587.66;;;2.48;80.26
46111;BME280;31849;55.992;37.252;2024-03-23T20:27:23;97596.22;;;2.44;80.25
46111;BME280;31849;55.992;37.252;2024-03-23T20:32:27;97598.78;;;2.36;80.23
46111;BME280;31849;55.992;37.252;2024-03-23T20:37:31;97611.59;;;2.38;79.49
46111;BME280;31849;55.992;37.252;2024-03-23T20:42:34;97603.03;;;2.42;79.95
46111;BME280;31849;55.992;37.252;2024-03-23T20:47:36;97603.91;;;2.45;79.71
46111;BME280;31849;55.992;37.252;2024-03-23T20:52:41;97603.03;;;2.42;80.36
46111;BME280;31849;55.992;37.252;2024-03-23T20:57:43;97603.91;;;2.42;79.75
46111;BME280;31849;55.992;37.252;2024-03-23T21:02:46;97610.75;;;2.50;78.66
46111;BME280;31849;55.992;37.252;2024-03-23T21:07:50;97601.34;;;2.47;79.03
46111;BME280;31849;55.992;37.252;2024-03-23T21:12:53;97612.44;;;2.51;78.97
46111;BME280;31849;55.992;37.252;2024-03-23T21:17:56;97614.16;;;2.56;78.53
46111;BME280;31849;55.992;37.252;2024-03-23T21:23:00;97621.84;;;2.56;78.99
46111;BME280;31849;55.992;37.252;2024-03-23T21:28:03;97634.66;;;2.64;77.82
46111;BME280;31849;55.992;37.252;2024-03-23T21:33:05;97638.09;;;2.69;77.99
46111;BME280;31849;55.992;37.252;2024-03-23T21:38:10;97632.13;;;2.72;78.00
46111;BME280;31849;55.992;37.252;2024-03-23T21:43:12;97637.25;;;2.81;77.66
46111;BME280;31849;55.992;37.252;2024-03-23T21:48:15;97649.22;;;2.85;77.52
46111;BME280;31849;55.992;37.252;2024-03-23T21:53:19;97638.09;;;2.86;78.32
46111;BME280;31849;55.992;37.252;2024-03-23T21:58:22;97626.13;;;2.88;77.30
46111;BME280;31849;55.992;37.252;2024-03-23T22:03:25;97627.00;;;2.75;77.88
46111;BME280;31849;55.992;37.252;2024-03-23T22:08:29;97620.16;;;2.71;77.26
46111;BME280;31849;55.992;37.252;2024-03-23T22:13:31;97629.53;;;2.66;77.68
46111;BME280;31849;55.992;37.252;2024-03-23T22:18:34;97625.28;;;2.61;77.64
46111;BME280;31849;55.992;37.252;2024-03-23T22:23:38;97635.53;;;2.54;77.88
46111;BME280;31849;55.992;37.252;2024-03-23T22:28:40;97640.66;;;2.41;77.63
46111;BME280;31849;55.992;37.252;2024-03-23T22:33:43;97622.69;;;2.21;77.60
46111;BME280;31849;55.992;37.252;2024-03-23T22:38:47;97623.53;;;2.20;77.94
46111;BME280;31849;55.992;37.252;2024-03-23T22:43:50;97624.38;;;2.11;77.64
46111;BME280;31849;55.992;37.252;2024-03-23T22:48:53;97637.13;;;1.90;78.38
46111;BME280;31849;55.992;37.252;2024-03-23T22:53:57;97636.25;;;1.75;78.51
46111;BME280;31849;55.992;37.252;2024-03-23T22:58:59;97643.06;;;1.72;78.75
46111;BME280;31849;55.992;37.252;2024-03-23T23:04:02;97638.84;;;1.79;78.79
46111;BME280;31849;55.992;37.252;2024-03-23T23:09:06;97645.72;;;2.01;77.94
46111;BME280;31849;55.992;37.252;2024-03-23T23:14:08;97638.09;;;2.21;77.58
46111;BME280;31849;55.992;37.252;2024-03-23T23:19:11;97638.09;;;2.40;77.90
46111;BME280;31849;55.992;37.252;2024-03-23T23:24:17;97637.25;;;2.38;78.08
46111;BME280;31849;55.992;37.252;2024-03-23T23:29:20;97648.34;;;2.57;77.47
46111;BME280;31849;55.992;37.252;2024-03-23T23:34:22;97648.38;;;2.75;76.61
46111;BME280;31849;55.992;37.252;2024-03-23T23:39:26;97650.94;;;2.74;76.97
46111;BME280;31849;55.992;37.252;2024-03-23T23:44:29;97651.78;;;2.84;76.91
46111;BME280;31849;55.992;37.252;2024-03-23T23:49:31;97652.63;;;2.84;77.66
46111;BME280;31849;55.992;37.252;2024-03-23T23:54:35;97645.78;;;2.86;77.59
46111;BME280;31849;55.992;37.252;2024-03-23T23:59:38;97645.75;;;2.95;78.57
